sensor_id;sensor_type;location;lat;lon;timestamp;pressure;altitude;pressure_sealevel;temperature;humidity
73101;BME280;61288;53.446;-2.266;2023-02-28T00:00:33;103328.25;;;5.06;85.92
73101;BME280;61288;53.446;-2.266;2023-02-28T00:03:00;103330.88;;;5.08;86.32
73101;BME280;61288;53.446;-2.266;2023-02-28T00:05:27;103330.81;;;5.06;86.13
73101;BME280;61288;53.446;-2.266;2023-02-28T00:07:53;103334.22;;;5.05;86.68
73101;BME280;61288;53.446;-2.266;2023-02-28T00:10:24;103333.31;;;5.03;87.36
73101;BME280;61288;53.446;-2.266;2023-02-28T00:12:50;103337.59;;;5.02;87.30
73101;BME280;61288;53.446;-2.266;2023-02-28T00:15:16;103341.00;;;5.01;87.37
73101;BME280;61288;53.446;-2.266;2023-02-28T00:17:42;103340.94;;;4.98;87.51
73101;BME280;61288;53.446;-2.266;2023-02-28T00:20:09;103341.78;;;4.99;87.46
73101;BME280;61288;53.446;-2.266;2023-02-28T00:22:42;103334.97;;;4.99;87.51
73101;BME280;61288;53.446;-2.266;2023-02-28T00:25:09;103345.25;;;5.01;87.32
73101;BME280;61288;53.446;-2.266;2023-02-28T00:27:36;103343.50;;;4.98;87.09
73101;BME280;61288;53.446;-2.266;2023-02-28T00:30:06;103340.88;;;4.97;87.18
73101;BME280;61288;53.446;-2.266;2023-02-28T00:32:32;103345.13;;;4.95;87.38
73101;BME280;61288;53.446;-2.266;2023-02-28T00:34:57;103339.06;;;4.93;87.27
73101;BME280;61288;53.446;-2.266;2023-02-28T00:37:23;103349.28;;;4.91;87.43
73101;BME280;61288;53.446;-2.266;2023-02-28T00:39:48;103344.19;;;4.93;87.17
73101;BME280;61288;53.446;-2.266;2023-02-28T00:42:14;103346.72;;;4.91;86.98
73101;BME280;61288;53.446;-2.266;2023-02-28T00:44:39;103345.88;;;4.90;87.04
73101;BME280;61288;53.446;-2.266;2023-02-28T00:47:05;103348.38;;;4.89;87.24
73101;BME280;61288;53.446;-2.266;2023-02-28T00:49:30;103348.44;;;4.90;86.62
73101;BME280;61288;53.446;-2.266;2023-02-28T00:51:56;103347.56;;;4.90;87.13
73101;BME280;61288;53.446;-2.266;2023-02-28T00:54:22;103353.53;;;4.89;87.26
73101;BME280;61288;53.446;-2.266;2023-02-28T00:56:48;103350.09;;;4.88;87.44
73101;BME280;61288;53.446;-2.266;2023-02-28T00:59:15;103340.66;;;4.87;87.68
73101;BME280;61288;53.446;-2.266;2023-02-28T01:01:42;103342.31;;;4.85;87.64
73101;BME280;61288;53.446;-2.266;2023-02-28T01:04:07;103344.88;;;4.85;87.46
73101;BME280;61288;53.446;-2.266;2023-02-28T01:06:34;103343.16;;;4.86;87.67
73101;BME280;61288;53.446;-2.266;2023-02-28T01:09:02;103345.72;;;4.86;87.27
73101;BME280;61288;53.446;-2.266;2023-02-28T01:11:27;103344.88;;;4.85;87.20
73101;BME280;61288;53.446;-2.266;2023-02-28T01:13:53;103354.28;;;4.85;87.26
73101;BME280;61288;53.446;-2.266;2023-02-28T01:16:27;103348.31;;;4.86;87.17
73101;BME280;61288;53.446;-2.266;2023-02-28T01:18:52;103350.03;;;4.85;87.09
73101;BME280;61288;53.446;-2.266;2023-02-28T01:21:19;103343.09;;;4.83;87.07
73101;BME280;61288;53.446;-2.266;2023-02-28T01:23:46;103357.66;;;4.82;86.83
73101;BME280;61288;53.446;-2.266;2023-02-28T01:26:22;103350.78;;;4.81;86.66
73101;BME280;61288;53.446;-2.266;2023-02-28T01:28:49;103350.66;;;4.78;86.87
73101;BME280;61288;53.446;-2.266;2023-02-28T01:31:15;103349.72;;;4.74;87.34
73101;BME280;61288;53.446;-2.266;2023-02-28T01:33:45;103351.34;;;4.71;87.23
73101;BME280;61288;53.446;-2.266;2023-02-28T01:36:16;103354.72;;;4.70;87.43
73101;BME280;61288;53.446;-2.266;2023-02-28T01:38:43;103351.25;;;4.68;87.38
73101;BME280;61288;53.446;-2.266;2023-02-28T01:41:16;103352.09;;;4.67;87.96
73101;BME280;61288;53.446;-2.266;2023-02-28T01:46:07;103354.63;;;4.65;88.74
73101;BME280;61288;53.446;-2.266;2023-02-28T01:48:36;103353.69;;;4.63;89.42
73101;BME280;61288;53.446;-2.266;2023-02-28T01:51:13;103357.06;;;4.60;90.60
73101;BME280;61288;53.446;-2.266;2023-02-28T01:53:49;103358.75;;;4.60;90.65
73101;BME280;61288;53.446;-2.266;2023-02-28T01:56:20;103364.72;;;4.59;91.57
73101;BME280;61288;53.446;-2.266;2023-02-28T01:58:49;103362.13;;;4.59;92.23
73101;BME280;61288;53.446;-2.266;2023-02-28T02:01:16;103356.91;;;4.54;93.08
73101;BME280;61288;53.446;-2.266;2023-02-28T02:03:55;103362.78;;;4.50;93.77
73101;BME280;61288;53.446;-2.266;2023-02-28T02:06:25;103361.03;;;4.49;93.59
73101;BME280;61288;53.446;-2.266;2023-02-28T02:08:52;103351.47;;;4.45;93.80
73101;BME280;61288;53.446;-2.266;2023-02-28T02:11:20;103359.16;;;4.43;93.50
73101;BME280;61288;53.446;-2.266;2023-02-28T02:13:53;103353.94;;;4.40;93.60
73101;BME280;61288;53.446;-2.266;2023-02-28T02:25:58;103351.91;;;4.30;95.13
73101;BME280;61288;53.446;-2.266;2023-02-28T02:29:56;103351.91;;;4.28;95.18
73101;BME280;61288;53.446;-2.266;2023-02-28T02:32:22;103354.41;;;4.27;95.61
73101;BME280;61288;53.446;-2.266;2023-02-28T02:35:17;103360.34;;;4.24;95.69
73101;BME280;61288;53.446;-2.266;2023-02-28T02:38:07;103350.91;;;4.23;96.07
73101;BME280;61288;53.446;-2.266;2023-02-28T02:41:09;103354.22;;;4.21;95.74
73101;BME280;61288;53.446;-2.266;2023-02-28T02:44:02;103355.94;;;4.20;96.27
73101;BME280;61288;53.446;-2.266;2023-02-28T02:46:42;103354.16;;;4.17;96.81
73101;BME280;61288;53.446;-2.266;2023-02-28T02:49:13;103356.69;;;4.16;96.53
73101;BME280;61288;53.446;-2.266;2023-02-28T02:51:42;103361.81;;;4.16;96.79
73101;BME280;61288;53.446;-2.266;2023-02-28T02:54:30;103357.44;;;4.13;96.54
73101;BME280;61288;53.446;-2.266;2023-02-28T02:57:01;103357.44;;;4.13;96.19
73101;BME280;61288;53.446;-2.266;2023-02-28T02:59:36;103354.00;;;4.13;96.36
73101;BME280;61288;53.446;-2.266;2023-02-28T03:02:11;103345.44;;;4.12;96.54
73101;BME280;61288;53.446;-2.266;2023-02-28T03:04:48;103351.34;;;4.10;96.78
73101;BME280;61288;53.446;-2.266;2023-02-28T03:07:15;103356.44;;;4.08;96.54
73101;BME280;61288;53.446;-2.266;2023-02-28T03:09:50;103355.53;;;4.06;96.56
73101;BME280;61288;53.446;-2.266;2023-02-28T03:12:16;103347.78;;;4.04;96.13
73101;BME280;61288;53.446;-2.266;2023-02-28T03:17:55;103347.75;;;4.03;96.88
73101;BME280;61288;53.446;-2.266;2023-02-28T03:20:55;103348.56;;;4.02;96.93
73101;BME280;61288;53.446;-2.266;2023-02-28T03:26:19;103350.34;;;4.04;96.54
73101;BME280;61288;53.446;-2.266;2023-02-28T03:29:13;103357.22;;;4.05;96.93
73101;BME280;61288;53.446;-2.266;2023-02-28T03:31:47;103347.00;;;4.07;97.80
73101;BME280;61288;53.446;-2.266;2023-02-28T03:34:36;103345.31;;;4.08;98.03
73101;BME280;61288;53.446;-2.266;2023-02-28T03:37:13;103355.56;;;4.08;97.96
73101;BME280;61288;53.446;-2.266;2023-02-28T03:39:46;103347.88;;;4.08;98.31
73101;BME280;61288;53.446;-2.266;2023-02-28T03:42:24;103346.94;;;4.05;98.60
73101;BME280;61288;53.446;-2.266;2023-02-28T03:44:58;103358.03;;;4.04;98.67
73101;BME280;61288;53.446;-2.266;2023-02-28T03:47:29;103353.72;;;4.03;98.88
73101;BME280;61288;53.446;-2.266;2023-02-28T03:52:44;103357.13;;;4.02;99.34
73101;BME280;61288;53.446;-2.266;2023-02-28T03:55:12;103359.66;;;4.01;99.29
73101;BME280;61288;53.446;-2.266;2023-02-28T04:00:20;103351.81;;;3.96;99.56
73101;BME280;61288;53.446;-2.266;2023-02-28T04:02:47;103363.75;;;3.96;99.81
73101;BME280;61288;53.446;-2.266;2023-02-28T04:05:21;103352.66;;;3.95;99.70
73101;BME280;61288;53.446;-2.266;2023-02-28T04:07:46;103349.19;;;3.95;99.65
73101;BME280;61288;53.446;-2.266;2023-02-28T04:10:14;103350.94;;;3.96;99.99
73101;BME280;61288;53.446;-2.266;2023-02-28T04:12:40;103345.78;;;3.94;99.91
73101;BME280;61288;53.446;-2.266;2023-02-28T04:15:06;103345.81;;;3.96;99.58
73101;BME280;61288;53.446;-2.266;2023-02-28T04:17:32;103346.59;;;3.93;99.71
73101;BME280;61288;53.446;-2.266;2023-02-28T04:19:57;103348.25;;;3.91;99.48
73101;BME280;61288;53.446;-2.266;2023-02-28T04:22:23;103344.78;;;3.89;99.66
73101;BME280;61288;53.446;-2.266;2023-02-28T04:24:54;103347.25;;;3.86;99.79
73101;BME280;61288;53.446;-2.266;2023-02-28T04:27:21;103356.63;;;3.85;99.66
73101;BME280;61288;53.446;-2.266;2023-02-28T04:29:47;103351.41;;;3.82;99.51
73101;BME280;61288;53.446;-2.266;2023-02-28T04:32:12;103346.94;;;3.76;99.42
73101;BME280;61288;53.446;-2.266;2023-02-28T04:34:38;103350.25;;;3.72;99.30
73101;BME280;61288;53.446;-2.266;2023-02-28T04:37:05;103350.16;;;3.69;99.76
73101;BME280;61288;53.446;-2.266;2023-02-28T04:39:35;103352.69;;;3.68;100.00
73101;BME280;61288;53.446;-2.266;2023-02-28T04:42:01;103362.06;;;3.67;100.00
73101;BME280;61288;53.446;-2.266;2023-02-28T04:44:26;103357.81;;;3.68;100.00
73101;BME280;61288;53.446;-2.266;2023-02-28T04:46:52;103351.75;;;3.66;99.99
73101;BME280;61288;53.446;-2.266;2023-02-28T04:49:18;103349.13;;;3.64;99.94
73101;BME280;61288;53.446;-2.266;2023-02-28T04:51:43;103357.66;;;3.63;100.00
73101;BME280;61288;53.446;-2.266;2023-02-28T04:54:18;103359.34;;;3.63;100.00
73101;BME280;61288;53.446;-2.266;2023-02-28T04:56:46;103355.91;;;3.62;100.00
73101;BME280;61288;53.446;-2.266;2023-02-28T04:59:17;103356.75;;;3.63;100.00
73101;BME280;61288;53.446;-2.266;2023-02-28T05:01:46;103367.03;;;3.63;100.00
73101;BME280;61288;53.446;-2.266;2023-02-28T05:04:13;103364.47;;;3.63;100.00
73101;BME280;61288;53.446;-2.266;2023-02-28T05:06:39;103368.75;;;3.64;100.00
73101;BME280;61288;53.446;-2.266;2023-02-28T05:09:04;103363.69;;;3.65;100.00
73101;BME280;61288;53.446;-2.266;2023-02-28T05:11:33;103361.19;;;3.67;100.00
73101;BME280;61288;53.446;-2.266;2023-02-28T05:14:14;103363.78;;;3.68;100.00
73101;BME280;61288;53.446;-2.266;2023-02-28T05:16:40;103370.72;;;3.71;100.00
73101;BME280;61288;53.446;-2.266;2023-02-28T05:19:06;103375.84;;;3.71;100.00
73101;BME280;61288;53.446;-2.266;2023-02-28T05:21:36;103373.31;;;3.72;100.00
73101;BME280;61288;53.446;-2.266;2023-02-28T05:24:20;103369.09;;;3.74;100.00
73101;BME280;61288;53.446;-2.266;2023-02-28T05:26:50;103363.97;;;3.74;100.00
73101;BME280;61288;53.446;-2.266;2023-02-28T05:29:17;103376.81;;;3.74;100.00
73101;BME280;61288;53.446;-2.266;2023-02-28T05:34:38;103363.06;;;3.72;100.00
73101;BME280;61288;53.446;-2.266;2023-02-28T05:37:14;103367.25;;;3.69;100.00
73101;BME280;61288;53.446;-2.266;2023-02-28T05:39:41;103361.97;;;3.64;100.00
73101;BME280;61288;53.446;-2.266;2023-02-28T05:42:07;103369.59;;;3.63;99.64
73101;BME280;61288;53.446;-2.266;2023-02-28T05:44:33;103371.31;;;3.62;99.63
73101;BME280;61288;53.446;-2.266;2023-02-28T05:46:59;103363.53;;;3.60;100.00
73101;BME280;61288;53.446;-2.266;2023-02-28T05:49:24;103361.81;;;3.59;99.34
73101;BME280;61288;53.446;-2.266;2023-02-28T05:51:50;103372.13;;;3.61;99.52
73101;BME280;61288;53.446;-2.266;2023-02-28T05:54:15;103366.16;;;3.62;99.84
73101;BME280;61288;53.446;-2.266;2023-02-28T05:56:41;103362.84;;;3.65;100.00
73101;BME280;61288;53.446;-2.266;2023-02-28T05:59:09;103368.88;;;3.67;100.00
73101;BME280;61288;53.446;-2.266;2023-02-28T06:01:39;103363.78;;;3.68;100.00
73101;BME280;61288;53.446;-2.266;2023-02-28T06:04:07;103364.69;;;3.69;100.00
73101;BME280;61288;53.446;-2.266;2023-02-28T06:06:34;103374.13;;;3.70;100.00
73101;BME280;61288;53.446;-2.266;2023-02-28T06:09:00;103377.59;;;3.72;100.00
73101;BME280;61288;53.446;-2.266;2023-02-28T06:11:26;103378.41;;;3.71;100.00
73101;BME280;61288;53.446;-2.266;2023-02-28T06:14:00;103380.16;;;3.72;100.00
73101;BME280;61288;53.446;-2.266;2023-02-28T06:16:27;103382.75;;;3.73;100.00
73101;BME280;61288;53.446;-2.266;2023-02-28T06:18:53;103381.91;;;3.73;100.00
73101;BME280;61288;53.446;-2.266;2023-02-28T06:21:22;103384.47;;;3.73;100.00
73101;BME280;61288;53.446;-2.266;2023-02-28T06:23:48;103379.34;;;3.73;100.00
73101;BME280;61288;53.446;-2.266;2023-02-28T06:26:13;103378.44;;;3.72;100.00
73101;BME280;61288;53.446;-2.266;2023-02-28T06:28:39;103380.09;;;3.70;100.00
73101;BME280;61288;53.446;-2.266;2023-02-28T06:31:14;103383.47;;;3.69;100.00
73101;BME280;61288;53.446;-2.266;2023-02-28T06:33:41;103398.00;;;3.69;100.00
73101;BME280;61288;53.446;-2.266;2023-02-28T06:36:07;103395.38;;;3.67;100.00
73101;BME280;61288;53.446;-2.266;2023-02-28T06:38:33;103389.34;;;3.65;100.00
73101;BME280;61288;53.446;-2.266;2023-02-28T06:41:00;103394.47;;;3.65;100.00
73101;BME280;61288;53.446;-2.266;2023-02-28T06:43:30;103392.72;;;3.64;100.00
73101;BME280;61288;53.446;-2.266;2023-02-28T06:45:57;103391.97;;;3.67;100.00
73101;BME280;61288;53.446;-2.266;2023-02-28T06:48:23;103402.22;;;3.67;100.00
73101;BME280;61288;53.446;-2.266;2023-02-28T06:50:49;103399.69;;;3.68;100.00
73101;BME280;61288;53.446;-2.266;2023-02-28T06:53:16;103404.81;;;3.68;100.00
73101;BME280;61288;53.446;-2.266;2023-02-28T06:55:41;103407.34;;;3.67;100.00
73101;BME280;61288;53.446;-2.266;2023-02-28T06:58:10;103414.06;;;3.63;100.00
73101;BME280;61288;53.446;-2.266;2023-02-28T07:00:41;103408.19;;;3.66;100.00
73101;BME280;61288;53.446;-2.266;2023-02-28T07:03:07;103415.88;;;3.66;99.84
73101;BME280;61288;53.446;-2.266;2023-02-28T07:05:35;103415.81;;;3.64;100.00
73101;BME280;61288;53.446;-2.266;2023-02-28T07:08:01;103419.19;;;3.63;100.00
73101;BME280;61288;53.446;-2.266;2023-02-28T07:10:27;103425.19;;;3.64;100.00
73101;BME280;61288;53.446;-2.266;2023-02-28T07:12:52;103426.13;;;3.66;99.62
73101;BME280;61288;53.446;-2.266;2023-02-28T07:15:17;103424.41;;;3.66;99.56
73101;BME280;61288;53.446;-2.266;2023-02-28T07:17:43;103421.09;;;3.69;99.84
73101;BME280;61288;53.446;-2.266;2023-02-28T07:20:09;103416.06;;;3.72;99.82
73101;BME280;61288;53.446;-2.266;2023-02-28T07:22:34;103426.34;;;3.73;98.95
73101;BME280;61288;53.446;-2.266;2023-02-28T07:25:00;103425.59;;;3.76;98.15
73101;BME280;61288;53.446;-2.266;2023-02-28T07:27:26;103429.00;;;3.76;98.00
73101;BME280;61288;53.446;-2.266;2023-02-28T07:29:53;103423.03;;;3.76;97.59
73101;BME280;61288;53.446;-2.266;2023-02-28T07:32:20;103423.94;;;3.78;97.46
73101;BME280;61288;53.446;-2.266;2023-02-28T07:34:47;103424.03;;;3.81;97.52
73101;BME280;61288;53.446;-2.266;2023-02-28T07:37:17;103424.03;;;3.81;97.57
73101;BME280;61288;53.446;-2.266;2023-02-28T07:39:42;103427.59;;;3.85;96.84
73101;BME280;61288;53.446;-2.266;2023-02-28T07:42:08;103425.06;;;3.86;97.00
73101;BME280;61288;53.446;-2.266;2023-02-28T07:44:36;103430.28;;;3.89;97.16
73101;BME280;61288;53.446;-2.266;2023-02-28T07:47:07;103433.91;;;3.96;95.71
73101;BME280;61288;53.446;-2.266;2023-02-28T07:49:35;103428.16;;;4.03;94.68
73101;BME280;61288;53.446;-2.266;2023-02-28T07:52:00;103437.69;;;4.08;94.60
73101;BME280;61288;53.446;-2.266;2023-02-28T07:54:29;103436.03;;;4.10;94.67
73101;BME280;61288;53.446;-2.266;2023-02-28T07:56:57;103434.38;;;4.12;95.12
73101;BME280;61288;53.446;-2.266;2023-02-28T07:59:23;103443.13;;;4.18;95.08
73101;BME280;61288;53.446;-2.266;2023-02-28T08:01:49;103435.69;;;4.26;95.24
73101;BME280;61288;53.446;-2.266;2023-02-28T08:04:35;103431.63;;;4.34;93.38
73101;BME280;61288;53.446;-2.266;2023-02-28T08:07:01;103435.22;;;4.40;94.06
73101;BME280;61288;53.446;-2.266;2023-02-28T08:09:26;103440.44;;;4.43;93.11
73101;BME280;61288;53.446;-2.266;2023-02-28T08:11:52;103437.09;;;4.45;92.36
73101;BME280;61288;53.446;-2.266;2023-02-28T08:14:17;103438.06;;;4.49;92.51
73101;BME280;61288;53.446;-2.266;2023-02-28T08:16:46;103434.84;;;4.56;92.36
73101;BME280;61288;53.446;-2.266;2023-02-28T08:19:12;103434.19;;;4.63;90.15
73101;BME280;61288;53.446;-2.266;2023-02-28T08:21:37;103435.25;;;4.72;90.19
73101;BME280;61288;53.446;-2.266;2023-02-28T08:24:03;103431.03;;;4.72;89.53
73101;BME280;61288;53.446;-2.266;2023-02-28T08:26:29;103439.63;;;4.74;88.58
73101;BME280;61288;53.446;-2.266;2023-02-28T08:28:54;103443.41;;;4.87;89.01
73101;BME280;61288;53.446;-2.266;2023-02-28T08:31:22;103437.69;;;4.98;89.03
73101;BME280;61288;53.446;-2.266;2023-02-28T08:33:48;103433.69;;;5.09;89.23
73101;BME280;61288;53.446;-2.266;2023-02-28T08:36:16;103431.22;;;5.12;88.47
73101;BME280;61288;53.446;-2.266;2023-02-28T08:38:42;103436.47;;;5.15;86.33
73101;BME280;61288;53.446;-2.266;2023-02-28T08:41:12;103445.88;;;5.84;85.16
73101;BME280;61288;53.446;-2.266;2023-02-28T08:43:44;103442.81;;;6.80;81.60
73101;BME280;61288;53.446;-2.266;2023-02-28T08:46:15;103441.25;;;7.93;77.47
73101;BME280;61288;53.446;-2.266;2023-02-28T08:48:41;103434.38;;;8.57;72.03
73101;BME280;61288;53.446;-2.266;2023-02-28T08:51:09;103439.50;;;9.37;70.47
73101;BME280;61288;53.446;-2.266;2023-02-28T08:53:36;103442.66;;;10.16;65.73
73101;BME280;61288;53.446;-2.266;2023-02-28T08:56:11;103439.91;;;9.90;64.75
73101;BME280;61288;53.446;-2.266;2023-02-28T08:58:41;103444.53;;;9.20;66.66
73101;BME280;61288;53.446;-2.266;2023-02-28T09:01:15;103438.56;;;9.25;66.85
73101;BME280;61288;53.446;-2.266;2023-02-28T09:03:43;103438.31;;;9.01;67.67
73101;BME280;61288;53.446;-2.266;2023-02-28T09:06:10;103441.66;;;8.90;68.72
73101;BME280;61288;53.446;-2.266;2023-02-28T09:08:42;103444.94;;;8.77;70.33
73101;BME280;61288;53.446;-2.266;2023-02-28T09:11:09;103450.28;;;8.23;71.92
73101;BME280;61288;53.446;-2.266;2023-02-28T09:13:39;103446.63;;;8.07;73.06
73101;BME280;61288;53.446;-2.266;2023-02-28T09:16:15;103449.72;;;7.83;73.46
73101;BME280;61288;53.446;-2.266;2023-02-28T09:18:42;103450.31;;;7.66;74.01
73101;BME280;61288;53.446;-2.266;2023-02-28T09:21:09;103451.47;;;7.85;73.23
73101;BME280;61288;53.446;-2.266;2023-02-28T09:23:40;103444.72;;;8.57;72.45
73101;BME280;61288;53.446;-2.266;2023-02-28T09:26:17;103446.09;;;9.04;70.91
73101;BME280;61288;53.446;-2.266;2023-02-28T09:28:43;103451.66;;;9.46;67.53
73101;BME280;61288;53.446;-2.266;2023-02-28T09:31:23;103460.66;;;9.96;67.28
73101;BME280;61288;53.446;-2.266;2023-02-28T09:33:56;103445.88;;;9.81;67.86
73101;BME280;61288;53.446;-2.266;2023-02-28T09:36:27;103451.81;;;9.66;66.32
73101;BME280;61288;53.446;-2.266;2023-02-28T09:38:53;103450.22;;;9.85;65.27
73101;BME280;61288;53.446;-2.266;2023-02-28T09:41:26;103444.53;;;10.42;65.26
73101;BME280;61288;53.446;-2.266;2023-02-28T09:44:01;103445.56;;;10.95;63.60
73101;BME280;61288;53.446;-2.266;2023-02-28T09:46:31;103448.22;;;11.45;63.02
73101;BME280;61288;53.446;-2.266;2023-02-28T09:49:05;103456.00;;;11.58;61.93
73101;BME280;61288;53.446;-2.266;2023-02-28T09:51:56;103455.09;;;11.10;61.87
73101;BME280;61288;53.446;-2.266;2023-02-28T09:54:28;103462.03;;;11.15;62.65
73101;BME280;61288;53.446;-2.266;2023-02-28T09:57:07;103460.28;;;11.23;62.12
73101;BME280;61288;53.446;-2.266;2023-02-28T10:00:04;103462.03;;;11.35;61.18
73101;BME280;61288;53.446;-2.266;2023-02-28T10:03:03;103464.66;;;11.78;62.03
73101;BME280;61288;53.446;-2.266;2023-02-28T10:05:38;103466.25;;;12.38;59.39
73101;BME280;61288;53.446;-2.266;2023-02-28T10:08:21;103460.97;;;12.60;56.46
73101;BME280;61288;53.446;-2.266;2023-02-28T10:10:56;103457.25;;;13.03;57.65
73101;BME280;61288;53.446;-2.266;2023-02-28T10:14:01;103470.19;;;13.12;57.34
73101;BME280;61288;53.446;-2.266;2023-02-28T10:16:50;103475.56;;;12.86;55.43
73101;BME280;61288;53.446;-2.266;2023-02-28T10:19:44;103470.69;;;12.07;57.17
73101;BME280;61288;53.446;-2.266;2023-02-28T10:22:34;103456.84;;;11.05;58.59
73101;BME280;61288;53.446;-2.266;2023-02-28T10:25:16;103471.47;;;10.91;59.38
73101;BME280;61288;53.446;-2.266;2023-02-28T10:27:43;103467.22;;;11.16;59.81
73101;BME280;61288;53.446;-2.266;2023-02-28T10:30:13;103464.66;;;11.60;59.40
73101;BME280;61288;53.446;-2.266;2023-02-28T10:32:40;103462.94;;;11.60;59.19
73101;BME280;61288;53.446;-2.266;2023-02-28T10:35:26;103467.19;;;10.99;59.64
73101;BME280;61288;53.446;-2.266;2023-02-28T10:37:57;103477.47;;;10.65;60.24
73101;BME280;61288;53.446;-2.266;2023-02-28T10:40:36;103465.13;;;10.16;60.88
73101;BME280;61288;53.446;-2.266;2023-02-28T10:43:17;103464.66;;;9.52;63.45
73101;BME280;61288;53.446;-2.266;2023-02-28T10:45:58;103467.66;;;9.04;64.91
73101;BME280;61288;53.446;-2.266;2023-02-28T10:48:41;103463.84;;;8.71;64.87
73101;BME280;61288;53.446;-2.266;2023-02-28T10:51:12;103464.63;;;8.64;65.33
73101;BME280;61288;53.446;-2.266;2023-02-28T10:59:00;103457.13;;;8.19;65.83
73101;BME280;61288;53.446;-2.266;2023-02-28T11:04:02;103451.41;;;7.82;67.40
73101;BME280;61288;53.446;-2.266;2023-02-28T11:06:33;103452.81;;;7.61;67.06
73101;BME280;61288;53.446;-2.266;2023-02-28T11:09:27;103455.19;;;7.49;66.99
73101;BME280;61288;53.446;-2.266;2023-02-28T11:11:58;103461.75;;;7.30;67.46
73101;BME280;61288;53.446;-2.266;2023-02-28T11:14:29;103451.28;;;7.22;66.24
73101;BME280;61288;53.446;-2.266;2023-02-28T11:17:14;103454.34;;;7.48;68.34
73101;BME280;61288;53.446;-2.266;2023-02-28T11:19:51;103438.72;;;7.96;67.02
73101;BME280;61288;53.446;-2.266;2023-02-28T11:22:23;103441.69;;;8.26;65.20
73101;BME280;61288;53.446;-2.266;2023-02-28T11:25:06;103441.78;;;8.29;63.47
73101;BME280;61288;53.446;-2.266;2023-02-28T11:27:45;103443.41;;;8.23;65.15
73101;BME280;61288;53.446;-2.266;2023-02-28T11:30:32;103443.34;;;8.19;63.68
73101;BME280;61288;53.446;-2.266;2023-02-28T13:10:08;103350.44;;;7.60;72.11
73101;BME280;61288;53.446;-2.266;2023-02-28T13:12:50;103348.59;;;7.51;71.81
73101;BME280;61288;53.446;-2.266;2023-02-28T13:15:27;103342.41;;;7.40;71.79
73101;BME280;61288;53.446;-2.266;2023-02-28T13:18:02;103336.31;;;7.35;71.95
73101;BME280;61288;53.446;-2.266;2023-02-28T13:20:36;103334.44;;;7.26;72.28
73101;BME280;61288;53.446;-2.266;2023-02-28T13:26:13;103324.72;;;7.10;73.09
73101;BME280;61288;53.446;-2.266;2023-02-28T13:31:16;103318.66;;;7.06;73.01
73101;BME280;61288;53.446;-2.266;2023-02-28T13:40:07;103316.47;;;7.31;71.26
73101;BME280;61288;53.446;-2.266;2023-02-28T13:42:56;103308.69;;;7.28;70.62
73101;BME280;61288;53.446;-2.266;2023-02-28T13:45:27;103309.41;;;7.17;70.92
73101;BME280;61288;53.446;-2.266;2023-02-28T13:48:02;103308.38;;;7.09;71.86
73101;BME280;61288;53.446;-2.266;2023-02-28T13:50:48;103310.91;;;7.04;72.78
73101;BME280;61288;53.446;-2.266;2023-02-28T13:53:53;103309.84;;;6.93;73.12
73101;BME280;61288;53.446;-2.266;2023-02-28T13:56:42;103309.91;;;6.96;74.31
73101;BME280;61288;53.446;-2.266;2023-02-28T14:05:00;103315.88;;;6.93;72.99
73101;BME280;61288;53.446;-2.266;2023-02-28T14:10:28;103311.69;;;7.00;73.16
73101;BME280;61288;53.446;-2.266;2023-02-28T14:15:47;103303.16;;;7.04;73.04
73101;BME280;61288;53.446;-2.266;2023-02-28T14:21:43;103293.66;;;7.02;72.19
73101;BME280;61288;53.446;-2.266;2023-02-28T14:27:00;103294.19;;;6.81;72.76
73101;BME280;61288;53.446;-2.266;2023-02-28T14:35:13;103299.72;;;7.04;72.05
73101;BME280;61288;53.446;-2.266;2023-02-28T14:37:42;103282.50;;;7.03;71.89
73101;BME280;61288;53.446;-2.266;2023-02-28T14:40:38;103285.13;;;7.04;72.71
73101;BME280;61288;53.446;-2.266;2023-02-28T14:43:19;103282.81;;;7.21;71.70
73101;BME280;61288;53.446;-2.266;2023-02-28T14:45:51;103291.31;;;7.14;70.47
73101;BME280;61288;53.446;-2.266;2023-02-28T14:48:21;103285.31;;;7.15;72.43
73101;BME280;61288;53.446;-2.266;2023-02-28T14:51:02;103283.50;;;7.11;71.17
73101;BME280;61288;53.446;-2.266;2023-02-28T14:53:29;103289.41;;;7.04;72.25
73101;BME280;61288;53.446;-2.266;2023-02-28T14:55:56;103284.09;;;6.94;72.17
73101;BME280;61288;53.446;-2.266;2023-02-28T14:58:28;103291.56;;;6.77;73.88
73101;BME280;61288;53.446;-2.266;2023-02-28T15:01:00;103286.13;;;6.62;75.80
73101;BME280;61288;53.446;-2.266;2023-02-28T15:03:35;103287.78;;;6.58;76.36
73101;BME280;61288;53.446;-2.266;2023-02-28T15:08:29;103281.59;;;6.48;75.52
73101;BME280;61288;53.446;-2.266;2023-02-28T15:11:12;103283.44;;;6.56;75.26
73101;BME280;61288;53.446;-2.266;2023-02-28T15:13:55;103280.91;;;6.57;75.90
73101;BME280;61288;53.446;-2.266;2023-02-28T15:16:40;103276.63;;;6.59;74.12
73101;BME280;61288;53.446;-2.266;2023-02-28T15:19:17;103269.00;;;6.65;74.43
73101;BME280;61288;53.446;-2.266;2023-02-28T15:21:49;103268.25;;;6.71;73.43
73101;BME280;61288;53.446;-2.266;2023-02-28T15:24:35;103267.44;;;6.74;74.07
73101;BME280;61288;53.446;-2.266;2023-02-28T15:27:07;103266.53;;;6.72;73.28
73101;BME280;61288;53.446;-2.266;2023-02-28T15:29:59;103264.84;;;6.74;72.17
73101;BME280;61288;53.446;-2.266;2023-02-28T15:32:38;103269.09;;;6.72;72.63
73101;BME280;61288;53.446;-2.266;2023-02-28T15:35:34;103271.72;;;6.73;72.36
73101;BME280;61288;53.446;-2.266;2023-02-28T15:40:51;103269.16;;;6.75;73.16
73101;BME280;61288;53.446;-2.266;2023-02-28T15:43:37;103279.50;;;6.76;72.43
73101;BME280;61288;53.446;-2.266;2023-02-28T15:46:09;103271.78;;;6.78;72.18
73101;BME280;61288;53.446;-2.266;2023-02-28T15:48:55;103274.44;;;6.83;71.61
73101;BME280;61288;53.446;-2.266;2023-02-28T15:51:34;103277.06;;;6.86;72.45
73101;BME280;61288;53.446;-2.266;2023-02-28T15:54:04;103278.84;;;6.88;71.99
73101;BME280;61288;53.446;-2.266;2023-02-28T15:56:55;103277.06;;;6.84;71.62
73101;BME280;61288;53.446;-2.266;2023-02-28T15:59:29;103275.34;;;6.83;73.03
73101;BME280;61288;53.446;-2.266;2023-02-28T16:02:23;103269.28;;;6.83;72.39
73101;BME280;61288;53.446;-2.266;2023-02-28T16:07:36;103268.41;;;6.81;71.87